Bloomington, IN (47408)

02:10 AM EST del 23 Febbraio 2017 (GMT -0500)
Devonshire Lane | | Change Station

Alt. 833 ft 39.18 °N, 86.48 °W | Updated 3 seconds ago

Parzialmente nuvoloso
Parzialmente nuvoloso
53.2 °F
Sembra 53.2 °F
N
0.0
Vento Variabile Vento da SSE

Oggi
Massima -- | Minima -- °F
--% Possibilità di precip.
Ieri
Massima -- | Minima -- °F
Precip. -- in
Pressione 29.77 in
Visibilità 10.0 miglia
Nuvole Molto nuvoloso 2800 ft
Punto di rugiada 51 °F
Umidità 95%
Piovosità 0.00 in
Spessore del manto nevoso Non disponibile.
7:26 AM 6:32 PM
Luna calante, 12% visible
SPECI KBMG 230707Z AUTO 22004KT 10SM BKN028 14/12 A2977 RMK AO2 T01390117
Pressione 29.77 in
Visibilità 10.0 miglia
Nuvole Molto nuvoloso 2800 ft
Punto di rugiada 51 °F
Umidità 95%
Piovosità 0.00 in
Spessore del manto nevoso Non disponibile.
7:26 AM 6:32 PM
Luna calante, 12% visible
SPECI KBMG 230707Z AUTO 22004KT 10SM BKN028 14/12 A2977 RMK AO2 T01390117

Get Your Daily Forecast Email!

Thanks for signing up!

Be on the lookout for a verification email in your inbox.

You'll start receiving the daily forecast at 8 AM.

×

10-Day Weather Forecast

Almanac

Astronomia

Feb. 23, 2017 Alba Tramonto
Ora attuale
Crepuscolo civile
Crepuscolo nautico
Crepuscolo astronomico
Luna
Estensione della luce visibile
Lunghezza del giorno
Tomorrow will be .
, % of the Moon is Illuminated

Gli estremi di oggi

State Highs State Lows

Community

WunderPhotos

Upload Photos

1,962,540 foto caricate!

WunderBlog® & News

Nearby

Qualità dell'aria

  Qualità dell'aria Indice AQ Inquinante
Not available.

Profondità neve

Stazione Profondità Altitudine

Attività sismica

Città  Distanza Mag. Data & Ora
Minimo Magnitudo Mostrato è 2.5.

Temperature delle acque costiere

Località Temperatura

Stations

Stazioni meteo nelle vicinanze

Ubicazione della stazione Temp. Raffreddamento del vento Punto di rugiada Umidità Vento Precip. Alt. Aggiornato Tipo
                   

Watches & Warnings

There are currently no watches in effect.